createdAt,value
2017-07-20T00:01:18.582Z,94031.62
2017-07-20T00:03:46.341Z,94029.89
2017-07-20T00:06:14.071Z,94036.97
2017-07-20T00:08:41.813Z,94032.91
2017-07-20T00:11:09.515Z,94028.16
2017-07-20T00:13:37.254Z,94032.14
2017-07-20T00:16:04.959Z,94023.55
2017-07-20T00:18:33.183Z,94030.97
2017-07-20T00:21:00.889Z,94025.45
2017-07-20T00:23:28.593Z,94019.38
2017-07-20T00:25:56.973Z,94032.08
2017-07-20T00:28:24.716Z,94042.59
2017-07-20T00:30:52.470Z,94046.68
2017-07-20T00:33:20.219Z,94042.68
2017-07-20T00:35:48.019Z,94041.30
2017-07-20T00:38:15.780Z,94039.94
2017-07-20T00:40:43.551Z,94041.44
2017-07-20T00:43:11.224Z,94039.97
2017-07-20T00:45:38.913Z,94036.07
2017-07-20T00:48:06.663Z,94040.95
2017-07-20T00:50:34.475Z,94050.70
2017-07-20T00:53:02.193Z,94047.87
2017-07-20T00:55:29.968Z,94041.37
2017-07-20T00:57:57.737Z,94044.73
2017-07-20T01:00:25.441Z,94048.10
2017-07-20T01:02:53.420Z,94047.98
2017-07-20T01:05:21.116Z,94051.09
2017-07-20T01:07:48.821Z,94052.09
2017-07-20T01:10:16.724Z,94053.77
2017-07-20T01:12:44.486Z,94055.95
2017-07-20T01:15:12.247Z,94048.97
2017-07-20T01:17:40.073Z,94049.43
2017-07-20T01:20:07.792Z,94055.26
2017-07-20T01:22:35.588Z,94063.15
2017-07-20T01:25:03.289Z,94057.66
2017-07-20T01:27:31.081Z,94056.23
2017-07-20T01:29:58.785Z,94056.87
2017-07-20T01:32:26.576Z,94062.66
2017-07-20T01:34:54.444Z,94060.18
2017-07-20T01:37:22.147Z,94065.09
2017-07-20T01:39:49.955Z,94070.69
2017-07-20T01:42:17.751Z,94064.06
2017-07-20T01:44:45.429Z,94063.52
2017-07-20T01:47:13.357Z,94061.78
2017-07-20T01:49:41.201Z,94068.19
2017-07-20T01:52:08.956Z,94075.28
2017-07-20T01:54:36.664Z,94076.67
2017-07-20T01:57:04.454Z,94069.75
2017-07-20T01:59:32.201Z,94071.19
2017-07-20T02:01:59.986Z,94071.06
2017-07-20T02:04:27.708Z,94068.02
2017-07-20T02:06:55.414Z,94064.32
2017-07-20T02:09:23.324Z,94072.13
2017-07-20T02:11:51.111Z,94070.91
2017-07-20T02:14:18.823Z,94063.31
2017-07-20T02:16:46.609Z,94068.92
2017-07-20T02:19:14.363Z,94080.16
2017-07-20T02:21:42.046Z,94080.13
2017-07-20T02:24:09.749Z,94078.06
2017-07-20T02:26:37.538Z,94083.41
2017-07-20T02:29:05.388Z,94091.33
2017-07-20T02:31:33.143Z,94088.05
2017-07-20T02:34:00.909Z,94084.80
2017-07-20T02:36:28.735Z,94077.73
2017-07-20T02:38:56.499Z,94074.20
2017-07-20T02:41:24.283Z,94069.97
2017-07-20T02:43:52.006Z,94074.45
2017-07-20T02:46:19.790Z,94067.02
2017-07-20T02:48:47.500Z,94062.94
2017-07-20T02:51:15.231Z,94066.00
2017-07-20T02:53:43.054Z,94078.20
2017-07-20T02:56:10.740Z,94083.25
2017-07-20T02:58:38.451Z,94079.15
2017-07-20T03:01:06.280Z,94086.45
2017-07-20T03:03:34.000Z,94093.09
2017-07-20T03:06:01.691Z,94093.09
2017-07-20T03:08:29.536Z,94087.22
2017-07-20T03:10:57.395Z,94078.61
2017-07-20T03:13:25.105Z,94076.17
2017-07-20T03:15:52.835Z,94071.09
2017-07-20T03:18:20.613Z,94063.05
2017-07-20T03:20:48.329Z,94061.11
2017-07-20T03:23:16.036Z,94072.70
2017-07-20T03:25:43.897Z,94076.77
2017-07-20T03:28:11.629Z,94073.53
2017-07-20T03:30:39.397Z,94076.39
2017-07-20T03:33:07.158Z,94087.43
2017-07-20T03:35:34.891Z,94085.09
2017-07-20T03:38:02.631Z,94084.33
2017-07-20T03:40:30.442Z,94095.28
2017-07-20T03:42:58.222Z,94104.70
2017-07-20T03:45:25.942Z,94103.31
2017-07-20T03:47:53.635Z,94109.00
2017-07-20T03:53:12.013Z,94100.45
2017-07-20T03:55:39.738Z,94095.44
2017-07-20T03:58:07.480Z,94094.37
2017-07-20T04:00:35.205Z,94089.70
2017-07-20T04:03:03.040Z,94090.88
2017-07-20T04:05:30.753Z,94098.02
2017-07-20T04:07:58.546Z,94118.39
2017-07-20T04:10:26.303Z,94129.74
2017-07-20T04:12:54.220Z,94123.45
2017-07-20T04:15:21.995Z,94127.34
2017-07-20T04:17:49.780Z,94129.17
2017-07-20T04:20:17.540Z,94134.80
2017-07-20T04:22:45.262Z,94129.08
2017-07-20T04:25:13.029Z,94136.26
2017-07-20T04:27:40.758Z,94131.20
2017-07-20T04:30:08.516Z,94127.19
2017-07-20T04:32:36.245Z,94129.48
2017-07-20T04:35:03.953Z,94129.68
2017-07-20T04:37:31.673Z,94131.14
2017-07-20T04:39:59.448Z,94128.27
2017-07-20T04:42:27.225Z,94138.05
2017-07-20T04:44:54.955Z,94142.91
2017-07-20T04:47:22.660Z,94143.33
2017-07-20T04:49:50.443Z,94142.53
2017-07-20T04:52:18.169Z,94138.94
2017-07-20T04:54:45.942Z,94137.77
2017-07-20T04:57:13.697Z,94134.06
2017-07-20T04:59:42.417Z,94141.35
2017-07-20T05:02:10.218Z,94144.14
2017-07-20T05:04:37.987Z,94157.84
2017-07-20T05:07:05.699Z,94153.69
2017-07-20T05:09:33.399Z,94152.47
2017-07-20T05:12:01.163Z,94156.08
2017-07-20T05:14:28.869Z,94161.34
2017-07-20T05:16:56.721Z,94167.19
2017-07-20T05:19:24.431Z,94166.89
2017-07-20T05:21:52.204Z,94168.36
2017-07-20T05:24:19.987Z,94171.92
2017-07-20T05:26:47.721Z,94180.08
2017-07-20T05:29:15.485Z,94180.20
2017-07-20T05:31:43.257Z,94183.84
2017-07-20T05:34:11.017Z,94180.37
2017-07-20T05:36:38.878Z,94175.06
2017-07-20T05:39:06.677Z,94175.94
2017-07-20T05:41:34.399Z,94173.26
2017-07-20T05:44:02.240Z,94178.67
2017-07-20T05:46:29.998Z,94182.36
2017-07-20T05:48:57.763Z,94183.59
2017-07-20T05:51:25.608Z,94184.97
2017-07-20T05:53:53.383Z,94173.70
2017-07-20T05:56:21.095Z,94181.31
2017-07-20T05:58:48.870Z,94177.73
2017-07-20T06:01:16.581Z,94177.94
2017-07-20T06:03:44.358Z,94179.55
2017-07-20T06:06:12.233Z,94173.69
2017-07-20T06:08:40.029Z,94175.38
2017-07-20T06:11:07.779Z,94175.11
2017-07-20T06:13:35.536Z,94178.23
2017-07-20T06:16:03.371Z,94174.25
2017-07-20T06:18:31.152Z,94176.79
2017-07-20T06:20:58.893Z,94173.41
2017-07-20T06:23:26.650Z,94176.58
2017-07-20T06:25:55.245Z,94172.89
2017-07-20T06:28:23.043Z,94171.52
2017-07-20T06:30:50.858Z,94173.81
2017-07-20T06:33:18.811Z,94171.70
2017-07-20T06:35:47.289Z,94169.95
2017-07-20T06:38:15.013Z,94160.82
2017-07-20T06:40:42.782Z,94159.95
2017-07-20T06:43:10.514Z,94159.47
2017-07-20T06:45:38.292Z,94151.08
2017-07-20T06:48:06.074Z,94145.45
2017-07-20T06:50:33.787Z,94140.86
2017-07-20T06:53:01.602Z,94145.55
2017-07-20T06:55:29.405Z,94145.67
2017-07-20T06:57:57.138Z,94142.89
2017-07-20T07:00:24.913Z,94139.74
2017-07-20T07:02:53.870Z,94132.20
2017-07-20T07:05:21.636Z,94134.54
2017-07-20T07:07:49.369Z,94136.81
2017-07-20T07:10:17.076Z,94138.20
2017-07-20T07:12:44.828Z,94133.62
2017-07-20T07:15:12.553Z,94126.31
2017-07-20T07:17:40.389Z,94127.69
2017-07-20T07:20:08.246Z,94119.91
2017-07-20T07:22:35.926Z,94124.36
2017-07-20T07:25:03.686Z,94123.77
2017-07-20T07:27:31.486Z,94113.05
2017-07-20T07:29:59.197Z,94105.22
2017-07-20T07:32:26.904Z,94108.98
2017-07-20T07:34:54.644Z,94099.02
2017-07-20T07:37:22.382Z,94100.87
2017-07-20T07:39:50.130Z,94103.77
2017-07-20T07:42:17.836Z,94105.45
2017-07-20T07:44:45.597Z,94099.83
2017-07-20T07:47:13.437Z,94088.43
2017-07-20T07:49:41.139Z,94094.23
2017-07-20T07:52:08.880Z,94086.05
2017-07-20T07:54:36.564Z,94084.16
2017-07-20T07:57:04.336Z,94083.80
2017-07-20T07:59:32.185Z,94090.02
2017-07-20T08:01:59.925Z,94078.44
2017-07-20T08:04:27.782Z,94074.86
2017-07-20T08:06:55.560Z,94067.30
2017-07-20T08:09:23.321Z,94067.77
2017-07-20T08:11:51.041Z,94064.88
2017-07-20T08:14:18.970Z,94061.03
2017-07-20T08:16:46.681Z,94057.63
2017-07-20T08:19:14.387Z,94052.05
2017-07-20T08:21:42.151Z,94051.08
2017-07-20T08:24:09.961Z,94052.23
2017-07-20T08:26:37.664Z,94044.85
2017-07-20T08:29:05.503Z,94047.98
2017-07-20T08:31:33.265Z,94052.86
2017-07-20T08:34:01.024Z,94052.13
2017-07-20T08:36:28.720Z,94052.95
2017-07-20T08:38:56.514Z,94051.20
2017-07-20T08:41:24.465Z,94052.16
2017-07-20T08:43:52.166Z,94049.84
2017-07-20T08:46:20.539Z,94036.95
2017-07-20T08:48:48.325Z,94040.16
2017-07-20T08:51:16.042Z,94038.94
2017-07-20T08:53:43.759Z,94032.02
2017-07-20T08:56:11.595Z,94035.77
2017-07-20T08:58:39.619Z,94035.51
2017-07-20T09:01:07.390Z,94027.17
2017-07-20T09:03:35.130Z,94020.02
2017-07-20T09:06:03.356Z,94021.90
2017-07-20T09:08:31.131Z,94018.67
2017-07-20T09:10:58.904Z,94008.58
2017-07-20T09:13:26.668Z,94003.47
2017-07-20T09:15:54.387Z,94001.95
2017-07-20T09:18:22.206Z,94004.59
2017-07-20T09:20:50.020Z,93996.66
2017-07-20T09:23:17.736Z,93998.25
2017-07-20T09:25:45.527Z,93996.65
2017-07-20T09:28:13.406Z,93985.72
2017-07-20T09:30:42.250Z,93991.27
2017-07-20T09:33:10.036Z,93982.91
2017-07-20T09:35:37.810Z,93979.20
2017-07-20T09:38:05.674Z,93984.26
2017-07-20T09:40:34.489Z,93983.78
2017-07-20T09:43:02.234Z,93975.58
2017-07-20T09:45:31.940Z,93972.40
2017-07-20T09:48:01.038Z,93964.00
2017-07-20T09:50:28.824Z,93961.14
2017-07-20T09:52:56.884Z,93961.16
2017-07-20T09:55:24.633Z,93947.42
2017-07-20T09:57:52.339Z,93955.58
2017-07-20T10:00:20.182Z,93945.34
2017-07-20T10:02:47.864Z,93940.22
2017-07-20T10:05:15.560Z,93934.06
2017-07-20T10:07:43.357Z,93931.86
2017-07-20T10:10:11.054Z,93931.44
2017-07-20T10:12:38.818Z,93930.42
2017-07-20T10:15:06.583Z,93917.30
2017-07-20T10:17:34.307Z,93911.86
2017-07-20T10:20:02.069Z,93913.67
2017-07-20T10:22:29.893Z,93903.61
2017-07-20T10:24:57.585Z,93895.57
2017-07-20T10:27:25.279Z,93899.41
2017-07-20T10:29:53.050Z,93899.66
2017-07-20T10:32:20.840Z,93897.98
2017-07-20T10:34:48.617Z,93890.66
2017-07-20T10:37:16.362Z,93888.37
2017-07-20T10:39:44.071Z,93882.01
2017-07-20T10:42:11.835Z,93881.41
2017-07-20T10:44:39.583Z,93868.23
2017-07-20T10:47:07.385Z,93869.78
2017-07-20T10:49:35.218Z,93861.85
2017-07-20T10:52:03.014Z,93862.69
2017-07-20T10:54:30.754Z,93864.60
2017-07-20T10:56:58.503Z,93854.57
2017-07-20T10:59:26.300Z,93851.28
2017-07-20T11:01:54.004Z,93849.17
2017-07-20T11:04:21.764Z,93841.20
2017-07-20T11:06:49.718Z,93840.28
2017-07-20T11:09:17.532Z,93834.78
2017-07-20T11:11:45.258Z,93827.27
2017-07-20T11:14:12.981Z,93831.40
2017-07-20T11:16:40.722Z,93827.97
2017-07-20T11:19:08.531Z,93829.03
2017-07-20T11:21:36.250Z,93825.72
2017-07-20T11:24:04.018Z,93829.89
2017-07-20T11:26:31.765Z,93827.17
2017-07-20T11:28:59.877Z,93819.06
2017-07-20T11:31:27.685Z,93813.36
2017-07-20T11:33:55.470Z,93804.72
2017-07-20T11:36:23.176Z,93803.98
2017-07-20T11:38:50.903Z,93797.32
2017-07-20T11:41:18.685Z,93791.49
2017-07-20T11:43:46.552Z,93792.64
2017-07-20T11:46:14.254Z,93786.82
2017-07-20T11:48:42.007Z,93787.66
2017-07-20T11:51:09.897Z,93787.13
2017-07-20T11:53:37.603Z,93784.64
2017-07-20T11:56:05.314Z,93771.44
2017-07-20T11:58:33.139Z,93771.16
2017-07-20T12:01:00.872Z,93774.73
2017-07-20T12:03:28.576Z,93766.15
2017-07-20T12:05:56.410Z,93775.06
2017-07-20T12:08:24.166Z,93766.02
2017-07-20T12:10:51.895Z,93763.55
2017-07-20T12:13:19.723Z,93759.25
2017-07-20T12:15:47.416Z,93754.43
2017-07-20T12:18:15.137Z,93754.31
2017-07-20T12:20:42.917Z,93753.01
2017-07-20T12:23:10.706Z,93748.78
2017-07-20T12:25:38.488Z,93738.15
2017-07-20T12:28:06.256Z,93732.19
2017-07-20T12:30:33.980Z,93727.77
2017-07-20T12:33:01.695Z,93729.02
2017-07-20T12:35:29.446Z,93731.94
2017-07-20T12:37:57.179Z,93728.23
2017-07-20T12:40:24.963Z,93719.75
2017-07-20T12:42:52.701Z,93716.77
2017-07-20T12:45:20.483Z,93717.17
2017-07-20T12:47:48.260Z,93713.89
2017-07-20T12:50:15.952Z,93708.25
2017-07-20T12:52:43.708Z,93709.97
2017-07-20T12:55:11.508Z,93712.23
2017-07-20T12:57:39.331Z,93701.05
2017-07-20T13:00:07.172Z,93700.96
2017-07-20T13:02:34.938Z,93693.61
2017-07-20T13:05:02.662Z,93695.95
2017-07-20T13:07:30.479Z,93692.14
2017-07-20T13:09:58.197Z,93686.03
2017-07-20T13:12:25.908Z,93681.27
2017-07-20T13:14:53.657Z,93683.61
2017-07-20T13:17:21.394Z,93680.06
2017-07-20T13:19:49.166Z,93669.11
2017-07-20T13:22:16.888Z,93670.42
2017-07-20T13:24:44.726Z,93667.66
2017-07-20T13:27:12.419Z,93662.49
2017-07-20T13:29:41.286Z,93663.59
2017-07-20T13:32:09.158Z,93658.28
2017-07-20T13:34:36.880Z,93652.85
2017-07-20T13:37:04.557Z,93653.75
2017-07-20T13:39:32.325Z,93651.42
2017-07-20T13:42:00.142Z,93650.23
2017-07-20T13:44:27.861Z,93647.06
2017-07-20T13:46:55.576Z,93645.30
2017-07-20T13:49:23.337Z,93640.69
2017-07-20T13:51:51.047Z,93638.84
2017-07-20T13:54:18.930Z,93635.63
2017-07-20T13:56:46.690Z,93633.47
2017-07-20T13:59:14.395Z,93629.84
2017-07-20T14:01:42.132Z,93619.58
2017-07-20T14:04:09.860Z,93629.27
2017-07-20T14:06:37.639Z,93625.56
2017-07-20T14:09:05.642Z,93625.81
2017-07-20T14:11:33.739Z,93617.72
2017-07-20T14:14:01.466Z,93616.33
2017-07-20T14:16:29.338Z,93614.72
2017-07-20T14:18:57.103Z,93619.23
2017-07-20T14:21:24.944Z,93606.61
2017-07-20T14:23:52.797Z,93605.34
2017-07-20T14:26:20.573Z,93604.13
2017-07-20T14:28:48.289Z,93598.73
2017-07-20T14:31:16.104Z,93592.20
2017-07-20T14:33:43.820Z,93592.69
2017-07-20T14:36:11.605Z,93592.22
2017-07-20T14:38:39.325Z,93588.08
2017-07-20T14:41:07.113Z,93583.84
2017-07-20T14:43:34.992Z,93578.00
2017-07-20T14:46:02.722Z,93568.98
2017-07-20T14:48:30.414Z,93583.00
2017-07-20T14:50:58.179Z,93583.03
2017-07-20T14:53:25.909Z,93581.38
2017-07-20T14:55:53.701Z,93578.30
2017-07-20T14:58:21.463Z,93575.00
2017-07-20T15:00:49.257Z,93576.14
2017-07-20T15:03:17.091Z,93570.44
2017-07-20T15:05:44.851Z,93566.27
2017-07-20T15:08:12.787Z,93560.02
2017-07-20T15:10:40.548Z,93561.80
2017-07-20T15:13:08.349Z,93566.20
2017-07-20T15:15:36.100Z,93571.98
2017-07-20T15:18:05.138Z,93585.38
2017-07-20T15:20:32.868Z,93594.55
2017-07-20T15:23:00.641Z,93592.66
2017-07-20T15:25:28.571Z,93595.74
2017-07-20T15:27:57.227Z,93601.25
2017-07-20T15:30:24.994Z,93600.99
2017-07-20T15:32:52.817Z,93597.95
2017-07-20T15:35:20.577Z,93598.80
2017-07-20T15:37:49.579Z,93601.52
2017-07-20T15:40:17.334Z,93607.91
2017-07-20T15:42:46.287Z,93614.71
2017-07-20T15:45:14.204Z,93614.03
2017-07-20T15:47:42.061Z,93616.42
2017-07-20T15:50:09.837Z,93619.91
2017-07-20T15:52:37.593Z,93626.73
2017-07-20T15:55:05.371Z,93618.99
2017-07-20T15:57:33.117Z,93614.39
2017-07-20T16:00:02.279Z,93613.66
2017-07-20T16:02:30.085Z,93612.33
2017-07-20T16:04:58.045Z,93617.45
2017-07-20T16:07:25.963Z,93615.66
2017-07-20T16:09:53.809Z,93615.77
2017-07-20T16:12:21.556Z,93622.47
2017-07-20T16:14:49.432Z,93624.75
2017-07-20T16:17:17.412Z,93637.91
2017-07-20T16:19:45.159Z,93631.91
2017-07-20T16:22:13.714Z,93625.73
2017-07-20T16:24:41.463Z,93636.05
2017-07-20T16:27:09.227Z,93648.05
2017-07-20T16:29:36.993Z,93655.82
2017-07-20T16:32:04.701Z,93661.38
2017-07-20T16:34:32.481Z,93670.55
2017-07-20T16:37:00.322Z,93683.70
2017-07-20T16:39:28.068Z,93683.20
2017-07-20T16:41:55.862Z,93699.19
2017-07-20T16:44:23.587Z,93705.70
2017-07-20T16:46:51.342Z,93713.07
2017-07-20T16:49:19.095Z,93723.27
2017-07-20T16:51:46.883Z,93742.87
2017-07-20T16:54:14.687Z,93771.11
2017-07-20T16:56:42.416Z,93793.52
2017-07-20T16:59:10.231Z,93801.19
2017-07-20T17:01:38.003Z,93810.73
2017-07-20T17:04:05.735Z,93815.80
2017-07-20T17:06:33.667Z,93832.52
2017-07-20T17:09:01.435Z,93839.63
2017-07-20T17:11:29.247Z,93846.84
2017-07-20T17:13:57.118Z,93881.95
2017-07-20T17:16:24.909Z,93901.98
2017-07-20T17:18:53.060Z,93918.44
2017-07-20T17:21:22.343Z,93945.48
2017-07-20T17:23:50.189Z,93967.82
2017-07-20T17:26:17.941Z,93990.66
2017-07-20T17:28:45.694Z,93995.44
2017-07-20T17:31:13.421Z,93997.95
2017-07-20T17:33:41.195Z,94020.62
2017-07-20T17:36:08.973Z,94033.05
2017-07-20T17:38:36.698Z,94047.95
2017-07-20T17:41:04.947Z,94040.59
2017-07-20T17:43:32.764Z,94033.33
2017-07-20T17:46:00.512Z,94035.41
2017-07-20T17:48:28.266Z,94035.82
2017-07-20T17:50:56.068Z,94038.94
2017-07-20T17:53:23.863Z,94048.13
2017-07-20T17:55:53.265Z,94048.91
2017-07-20T17:58:21.058Z,94056.66
2017-07-20T18:00:48.855Z,94054.41
2017-07-20T18:03:16.828Z,94062.37
2017-07-20T18:05:44.645Z,94065.66
2017-07-20T18:08:12.422Z,94077.38
2017-07-20T18:10:40.171Z,94085.91
2017-07-20T18:13:08.104Z,94097.44
2017-07-20T18:15:35.824Z,94099.05
2017-07-20T18:18:04.432Z,94114.80
2017-07-20T18:20:32.206Z,94123.23
2017-07-20T18:23:00.015Z,94135.00
2017-07-20T18:25:27.833Z,94136.25
2017-07-20T18:27:55.654Z,94149.80
2017-07-20T18:30:23.410Z,94156.38
2017-07-20T18:32:51.184Z,94156.45
2017-07-20T18:35:18.991Z,94162.47
2017-07-20T18:37:46.798Z,94180.50
2017-07-20T18:40:14.644Z,94178.72
2017-07-20T18:42:42.431Z,94188.25
2017-07-20T18:45:10.260Z,94193.47
2017-07-20T18:47:38.039Z,94193.41
2017-07-20T18:50:05.795Z,94191.30
2017-07-20T18:52:33.710Z,94194.45
2017-07-20T18:55:01.497Z,94190.11
2017-07-20T18:57:29.472Z,94190.60
2017-07-20T18:59:57.205Z,94183.78
2017-07-20T19:02:25.020Z,94199.17
2017-07-20T19:04:53.762Z,94190.80
2017-07-20T19:07:21.459Z,94195.53
2017-07-20T19:09:49.297Z,94201.48
2017-07-20T19:12:17.043Z,94200.15
2017-07-20T19:14:44.843Z,94201.91
2017-07-20T19:17:12.665Z,94204.03
2017-07-20T19:19:40.535Z,94194.55
2017-07-20T19:22:10.499Z,94198.22
2017-07-20T19:24:38.493Z,94203.60
2017-07-20T19:27:06.303Z,94200.67
2017-07-20T19:29:34.120Z,94208.70
2017-07-20T19:32:01.964Z,94205.86
2017-07-20T19:34:30.344Z,94215.91
2017-07-20T19:36:58.292Z,94210.65
2017-07-20T19:39:26.043Z,94214.78
2017-07-20T19:41:53.814Z,94217.86
2017-07-20T19:44:21.738Z,94217.69
2017-07-20T19:46:50.056Z,94206.61
2017-07-20T19:49:21.053Z,94198.55
2017-07-20T19:51:49.020Z,94197.92
2017-07-20T19:54:17.011Z,94187.61
2017-07-20T19:56:45.345Z,94178.77
2017-07-20T19:59:13.843Z,94165.63
2017-07-20T20:01:41.699Z,94166.67
2017-07-20T20:04:09.628Z,94173.21
2017-07-20T20:06:37.489Z,94171.95
2017-07-20T20:09:05.304Z,94168.13
2017-07-20T20:11:33.038Z,94171.84
2017-07-20T20:14:00.817Z,94179.03
2017-07-20T20:16:29.134Z,94183.81
2017-07-20T20:18:56.964Z,94182.66
2017-07-20T20:21:24.754Z,94188.03
2017-07-20T20:23:53.735Z,94194.21
2017-07-20T20:26:21.524Z,94201.86
2017-07-20T20:28:49.344Z,94193.46
2017-07-20T20:31:17.684Z,94195.84
2017-07-20T20:33:45.492Z,94200.25
2017-07-20T20:36:13.268Z,94198.79
2017-07-20T20:38:41.057Z,94203.13
2017-07-20T20:41:08.841Z,94204.74
2017-07-20T20:43:36.702Z,94207.04
2017-07-20T20:46:04.428Z,94214.69
2017-07-20T20:48:32.191Z,94215.89
2017-07-20T20:51:00.004Z,94226.69
2017-07-20T20:53:27.725Z,94205.86
2017-07-20T20:55:55.497Z,94207.97
2017-07-20T20:58:23.263Z,94202.91
2017-07-20T21:00:51.016Z,94196.30
2017-07-20T21:03:18.832Z,94196.69
2017-07-20T21:05:46.557Z,94193.94
2017-07-20T21:08:14.425Z,94202.66
2017-07-20T21:10:42.187Z,94202.45
2017-07-20T21:13:09.964Z,94194.56
2017-07-20T21:15:37.717Z,94197.39
2017-07-20T21:18:05.606Z,94199.62
2017-07-20T21:20:33.332Z,94195.21
2017-07-20T21:23:01.082Z,94198.36
2017-07-20T21:25:28.816Z,94196.25
2017-07-20T21:27:57.366Z,94193.64
2017-07-20T21:30:25.182Z,94197.71
2017-07-20T21:32:52.955Z,94193.50
2017-07-20T21:35:20.765Z,94194.95
2017-07-20T21:37:48.544Z,94188.48
2017-07-20T21:40:16.291Z,94193.22
2017-07-20T21:42:44.197Z,94195.75
2017-07-20T21:45:11.911Z,94193.12
2017-07-20T21:47:40.299Z,94184.02
2017-07-20T21:50:08.069Z,94183.15
2017-07-20T21:52:35.999Z,94177.23
2017-07-20T21:55:04.618Z,94181.17
2017-07-20T21:57:32.361Z,94183.55
2017-07-20T22:00:00.050Z,94173.82
2017-07-20T22:02:27.787Z,94178.94
2017-07-20T22:04:56.565Z,94182.14
2017-07-20T22:07:24.285Z,94184.50
2017-07-20T22:09:52.048Z,94177.44
2017-07-20T22:12:19.837Z,94174.25
2017-07-20T22:14:47.556Z,94167.80
2017-07-20T22:17:15.340Z,94172.44
2017-07-20T22:19:43.049Z,94169.81
2017-07-20T22:22:10.944Z,94172.02
2017-07-20T22:24:38.660Z,94171.48
2017-07-20T22:27:06.434Z,94173.53
2017-07-20T22:29:34.204Z,94179.84
2017-07-20T22:32:01.923Z,94177.97
2017-07-20T22:34:29.993Z,94180.34
2017-07-20T22:36:57.702Z,94181.52
2017-07-20T22:39:25.419Z,94183.23
2017-07-20T22:41:53.179Z,94179.72
2017-07-20T22:44:20.887Z,94183.89
2017-07-20T22:46:48.617Z,94184.45
2017-07-20T22:49:16.330Z,94185.50
2017-07-20T22:51:44.030Z,94185.23
2017-07-20T22:54:11.793Z,94187.21
2017-07-20T22:56:39.545Z,94192.47
2017-07-20T22:59:07.305Z,94186.81
2017-07-20T23:01:35.028Z,94188.92
2017-07-20T23:04:03.552Z,94183.52
2017-07-20T23:06:31.356Z,94189.17
2017-07-20T23:08:59.058Z,94189.84
2017-07-20T23:11:26.763Z,94190.89
2017-07-20T23:13:54.542Z,94188.53
2017-07-20T23:16:22.325Z,94190.39
2017-07-20T23:18:50.055Z,94194.97
2017-07-20T23:21:17.739Z,94199.98
2017-07-20T23:23:45.508Z,94198.52
2017-07-20T23:26:13.298Z,94198.66
2017-07-20T23:28:41.073Z,94205.12
2017-07-20T23:31:09.746Z,94208.53
2017-07-20T23:33:37.536Z,94206.70
2017-07-20T23:36:05.238Z,94207.87
2017-07-20T23:38:33.021Z,94212.99
2017-07-20T23:41:00.852Z,94201.44
2017-07-20T23:43:28.898Z,94209.58
2017-07-20T23:45:56.934Z,94216.94
2017-07-20T23:48:25.059Z,94205.37
2017-07-20T23:50:53.141Z,94201.30
2017-07-20T23:53:21.213Z,94202.47
2017-07-20T23:55:49.259Z,94198.79
2017-07-20T23:58:17.356Z,94201.17
